createdAt,value
2023-06-02T00:00:40.449Z,18.52
2023-06-02T00:03:10.018Z,18.44
2023-06-02T00:05:40.396Z,18.44
2023-06-02T00:08:08.568Z,18.36
2023-06-02T00:10:37.294Z,18.27
2023-06-02T00:13:05.328Z,18.20
2023-06-02T00:15:34.511Z,17.96
2023-06-02T00:18:02.827Z,17.71
2023-06-02T00:20:33.235Z,17.79
2023-06-02T00:23:03.206Z,17.84
2023-06-02T00:25:32.168Z,17.92
2023-06-02T00:28:00.181Z,17.92
2023-06-02T00:30:29.165Z,17.78
2023-06-02T00:32:57.227Z,17.77
2023-06-02T00:35:25.508Z,17.69
2023-06-02T00:37:54.370Z,17.60
2023-06-02T00:40:24.709Z,17.63
2023-06-02T00:42:52.692Z,17.62
2023-06-02T00:45:20.667Z,17.44
2023-06-02T00:47:48.597Z,17.38
2023-06-02T00:50:17.410Z,17.44
2023-06-02T00:52:48.073Z,17.40
2023-06-02T00:55:16.125Z,17.35
2023-06-02T00:57:45.528Z,17.42
2023-06-02T01:00:15.558Z,17.44
2023-06-02T01:02:43.513Z,17.37
2023-06-02T01:05:14.247Z,17.09
2023-06-02T01:07:46.319Z,17.22
2023-06-02T01:10:16.852Z,17.33
2023-06-02T01:12:46.840Z,17.33
2023-06-02T01:15:15.049Z,17.33
2023-06-02T01:17:47.171Z,17.24
2023-06-02T01:20:16.856Z,17.24
2023-06-02T01:22:54.339Z,17.26
2023-06-02T01:25:25.114Z,17.27
2023-06-02T01:27:53.112Z,17.21
2023-06-02T01:30:21.619Z,17.20
2023-06-02T01:32:59.743Z,17.26
2023-06-02T01:35:32.754Z,17.19
2023-06-02T01:38:02.726Z,17.12
2023-06-02T01:40:33.066Z,17.09
2023-06-02T01:43:02.093Z,17.05
2023-06-02T01:45:32.189Z,16.91
2023-06-02T01:48:04.746Z,16.81
2023-06-02T01:50:33.593Z,16.81
2023-06-02T01:53:01.489Z,16.88
2023-06-02T01:55:29.609Z,16.70
2023-06-02T01:57:59.100Z,16.73
2023-06-02T02:00:27.404Z,16.80
2023-06-02T02:02:55.830Z,16.75
2023-06-02T02:05:24.011Z,16.68
2023-06-02T02:07:52.144Z,16.72
2023-06-02T02:10:20.627Z,16.75
2023-06-02T02:12:48.683Z,16.66
2023-06-02T02:15:18.316Z,16.65
2023-06-02T02:17:48.851Z,16.64
2023-06-02T02:20:19.080Z,16.64
2023-06-02T02:22:48.005Z,16.64
2023-06-02T02:25:16.768Z,16.62
2023-06-02T02:27:44.828Z,16.56
2023-06-02T02:30:13.126Z,16.52
2023-06-02T02:32:45.678Z,16.35
2023-06-02T02:35:14.234Z,16.48
2023-06-02T02:37:47.166Z,16.36
2023-06-02T02:40:16.724Z,16.56
2023-06-02T02:42:44.870Z,16.55
2023-06-02T02:45:13.075Z,16.53
2023-06-02T02:47:42.595Z,16.43
2023-06-02T02:50:11.788Z,16.40
2023-06-02T02:52:39.861Z,16.37
2023-06-02T02:55:08.770Z,16.31
2023-06-02T02:57:37.309Z,16.19
2023-06-02T03:00:08.739Z,16.19
2023-06-02T03:02:36.786Z,16.12
2023-06-02T03:05:07.936Z,16.01
2023-06-02T03:07:36.616Z,15.75
2023-06-02T03:10:04.934Z,15.74
2023-06-02T03:12:32.950Z,15.78
2023-06-02T03:15:01.268Z,15.70
2023-06-02T03:17:29.756Z,15.60
2023-06-02T03:19:59.267Z,15.63
2023-06-02T03:22:30.117Z,15.79
2023-06-02T03:24:58.130Z,15.64
2023-06-02T03:27:26.437Z,15.81
2023-06-02T03:29:54.369Z,15.87
2023-06-02T03:32:22.349Z,15.93
2023-06-02T03:34:50.407Z,16.03
2023-06-02T03:37:18.331Z,16.02
2023-06-02T03:39:47.668Z,16.01
2023-06-02T03:42:15.976Z,15.89
2023-06-02T03:44:43.968Z,15.93
2023-06-02T03:47:12.003Z,16.04
2023-06-02T03:49:40.136Z,16.24
2023-06-02T03:52:08.311Z,16.32
2023-06-02T03:54:36.242Z,16.16
2023-06-02T03:57:06.027Z,16.31
2023-06-02T03:59:34.605Z,16.43
2023-06-02T04:02:02.526Z,16.39
2023-06-02T04:04:30.745Z,16.43
2023-06-02T04:06:58.866Z,16.24
2023-06-02T04:09:26.836Z,16.49
2023-06-02T04:11:54.802Z,16.65
2023-06-02T04:14:24.068Z,16.41
2023-06-02T04:16:52.648Z,16.72
2023-06-02T04:19:20.751Z,16.88
2023-06-02T04:21:48.733Z,16.97
2023-06-02T04:24:16.646Z,16.99
2023-06-02T04:26:44.646Z,17.01
2023-06-02T04:29:13.121Z,17.29
2023-06-02T04:31:44.267Z,17.34
2023-06-02T04:34:13.372Z,17.35
2023-06-02T04:36:41.584Z,17.54
2023-06-02T04:39:11.225Z,17.59
2023-06-02T04:41:39.328Z,17.72
2023-06-02T04:44:09.827Z,17.85
2023-06-02T04:46:38.197Z,17.98
2023-06-02T04:49:10.755Z,18.19
2023-06-02T04:51:39.329Z,18.42
2023-06-02T04:54:07.563Z,18.56
2023-06-02T04:56:36.859Z,18.60
2023-06-02T04:59:05.260Z,18.72
2023-06-02T05:01:34.489Z,18.79
2023-06-02T05:04:02.743Z,18.91
2023-06-02T05:06:32.522Z,18.99
2023-06-02T05:09:00.452Z,19.09
2023-06-02T05:11:28.393Z,19.14
2023-06-02T05:13:56.607Z,19.18
2023-06-02T05:16:25.835Z,19.17
2023-06-02T05:18:53.830Z,19.27
2023-06-02T05:21:21.785Z,19.28
2023-06-02T05:23:51.677Z,19.33
2023-06-02T05:26:19.630Z,19.42
2023-06-02T05:28:47.566Z,19.44
2023-06-02T05:31:15.544Z,19.41
2023-06-02T05:33:43.629Z,19.45
2023-06-02T05:36:11.541Z,19.45
2023-06-02T05:38:43.633Z,19.43
2023-06-02T05:41:13.815Z,19.46
2023-06-02T05:43:41.770Z,19.52
2023-06-02T05:46:09.798Z,19.59
2023-06-02T05:48:38.001Z,19.67
2023-06-02T05:51:05.988Z,19.68
2023-06-02T05:53:34.034Z,19.73
2023-06-02T05:56:02.355Z,19.92
2023-06-02T05:58:32.554Z,20.01
2023-06-02T06:01:00.537Z,20.22
2023-06-02T06:03:28.562Z,20.34
2023-06-02T06:05:56.693Z,20.29
2023-06-02T06:08:24.801Z,20.38
2023-06-02T06:10:54.370Z,20.41
2023-06-02T06:13:22.384Z,20.37
2023-06-02T06:15:51.840Z,20.20
2023-06-02T06:18:21.249Z,20.33
2023-06-02T06:20:49.206Z,20.56
2023-06-02T06:23:17.446Z,20.64
2023-06-02T06:25:45.516Z,20.76
2023-06-02T06:28:13.490Z,20.83
2023-06-02T06:30:41.560Z,21.07
2023-06-02T06:33:11.188Z,21.16
2023-06-02T06:35:39.266Z,21.05
2023-06-02T06:38:07.540Z,21.08
2023-06-02T06:40:36.337Z,21.09
2023-06-02T06:43:19.406Z,21.17
2023-06-02T06:45:52.109Z,21.16
2023-06-02T06:48:21.650Z,21.35
2023-06-02T06:50:50.594Z,21.46
2023-06-02T06:53:19.588Z,21.38
2023-06-02T06:55:48.216Z,21.49
2023-06-02T06:58:16.141Z,21.58
2023-06-02T07:00:44.059Z,21.38
2023-06-02T07:03:12.043Z,21.34
2023-06-02T07:05:41.510Z,21.46
2023-06-02T07:08:09.564Z,21.68
2023-06-02T07:10:37.464Z,21.93
2023-06-02T07:13:05.451Z,22.05
2023-06-02T07:15:33.332Z,22.07
2023-06-02T07:18:01.266Z,22.24
2023-06-02T07:20:29.202Z,22.28
2023-06-02T07:22:58.463Z,22.41
2023-06-02T07:25:26.465Z,22.45
2023-06-02T07:27:54.782Z,22.50
2023-06-02T07:30:23.193Z,22.61
2023-06-02T07:32:51.206Z,22.66
2023-06-02T07:35:19.314Z,22.67
2023-06-02T07:37:47.278Z,22.72
2023-06-02T07:40:16.588Z,22.76
2023-06-02T07:42:44.615Z,22.80
2023-06-02T07:45:12.762Z,22.71
2023-06-02T07:47:40.756Z,22.88
2023-06-02T07:50:09.338Z,22.87
2023-06-02T07:52:37.473Z,23.04
2023-06-02T07:55:05.867Z,23.11
2023-06-02T07:57:35.258Z,23.22
2023-06-02T08:00:14.968Z,23.34
2023-06-02T08:02:44.748Z,23.24
2023-06-02T08:05:12.926Z,23.36
2023-06-02T08:07:41.197Z,23.39
2023-06-02T08:10:10.666Z,23.27
2023-06-02T08:12:40.123Z,22.96
2023-06-02T08:15:09.240Z,22.97
2023-06-02T08:17:37.242Z,23.18
2023-06-02T08:20:07.906Z,23.29
2023-06-02T08:22:37.428Z,23.18
2023-06-02T08:25:06.125Z,23.33
2023-06-02T08:27:34.014Z,23.22
2023-06-02T08:30:03.322Z,23.08
2023-06-02T08:32:31.223Z,23.35
2023-06-02T08:35:02.824Z,23.52
2023-06-02T08:37:33.475Z,23.59
2023-06-02T08:40:02.040Z,23.55
2023-06-02T08:42:30.042Z,23.44
2023-06-02T08:44:58.611Z,23.53
2023-06-02T08:47:30.239Z,23.50
2023-06-02T08:50:02.828Z,23.56
2023-06-02T08:52:31.784Z,23.19
2023-06-02T08:54:59.893Z,23.35
2023-06-02T08:57:27.814Z,23.53
2023-06-02T08:59:55.842Z,23.63
2023-06-02T09:02:23.929Z,23.41
2023-06-02T09:04:53.565Z,23.34
2023-06-02T09:07:24.713Z,23.56
2023-06-02T09:09:56.390Z,23.80
2023-06-02T09:12:26.384Z,23.94
2023-06-02T09:15:10.709Z,23.99
2023-06-02T09:17:39.229Z,24.23
2023-06-02T09:20:12.602Z,24.13
2023-06-02T09:22:56.558Z,24.07
2023-06-02T09:25:26.407Z,24.29
2023-06-02T09:27:55.531Z,24.52
2023-06-02T09:30:23.588Z,24.55
2023-06-02T09:32:56.485Z,24.13
2023-06-02T09:35:42.602Z,24.57
2023-06-02T09:38:12.381Z,24.77
2023-06-02T09:40:41.400Z,24.42
2023-06-02T09:43:11.539Z,24.80
2023-06-02T09:46:01.080Z,24.81
2023-06-02T09:48:29.884Z,24.94
2023-06-02T09:50:59.554Z,25.19
2023-06-02T09:53:27.607Z,24.98
2023-06-02T09:55:55.564Z,24.69
2023-06-02T09:58:23.537Z,24.32
2023-06-02T10:00:51.762Z,24.45
2023-06-02T10:03:20.096Z,24.65
2023-06-02T10:05:59.583Z,24.67
2023-06-02T10:08:36.000Z,24.88
2023-06-02T10:11:13.822Z,24.96
2023-06-02T10:14:04.260Z,24.82
2023-06-02T10:16:47.621Z,25.04
2023-06-02T10:19:32.094Z,25.10
2023-06-02T10:22:26.657Z,25.05
2023-06-02T10:25:07.978Z,25.01
2023-06-02T10:27:38.746Z,24.87
2023-06-02T10:30:08.230Z,24.98
2023-06-02T10:32:44.856Z,24.92
2023-06-02T10:35:12.855Z,25.21
2023-06-02T10:37:41.176Z,25.40
2023-06-02T10:40:12.127Z,25.36
2023-06-02T10:43:00.648Z,25.42
2023-06-02T10:45:38.215Z,25.45
2023-06-02T10:48:36.728Z,25.29
2023-06-02T10:51:05.424Z,25.42
2023-06-02T10:53:34.139Z,25.51
2023-06-02T10:56:40.439Z,25.41
2023-06-02T10:59:10.849Z,25.30
2023-06-02T11:01:56.691Z,25.37
2023-06-02T11:04:33.535Z,25.44
2023-06-02T11:07:17.202Z,25.50
2023-06-02T11:09:45.385Z,25.37
2023-06-02T11:12:13.900Z,25.49
2023-06-02T11:15:20.465Z,25.52
2023-06-02T11:17:51.941Z,25.47
2023-06-02T11:20:21.529Z,25.25
2023-06-02T11:22:49.479Z,25.12
2023-06-02T11:25:18.633Z,25.48
2023-06-02T11:27:48.542Z,25.55
2023-06-02T11:30:19.118Z,25.70
2023-06-02T11:32:51.287Z,25.77
2023-06-02T11:35:22.325Z,25.87
2023-06-02T11:38:04.318Z,25.96
2023-06-02T11:40:33.587Z,25.95
2023-06-02T11:43:01.775Z,25.79
2023-06-02T11:45:30.045Z,25.72
2023-06-02T11:48:06.450Z,25.75
2023-06-02T11:50:34.798Z,25.75
2023-06-02T11:53:03.952Z,25.88
2023-06-02T11:55:33.976Z,25.85
2023-06-02T11:58:23.999Z,26.21
2023-06-02T12:00:53.671Z,26.29
2023-06-02T12:03:26.470Z,26.37
2023-06-02T12:05:56.895Z,26.12
2023-06-02T12:08:27.745Z,26.32
2023-06-02T12:10:59.349Z,26.46
2023-06-02T12:13:29.153Z,26.68
2023-06-02T12:15:57.871Z,26.47
2023-06-02T12:18:31.820Z,26.36
2023-06-02T12:21:00.873Z,26.62
2023-06-02T12:23:45.595Z,26.40
2023-06-02T12:26:13.677Z,26.19
2023-06-02T12:28:42.074Z,26.29
2023-06-02T12:31:10.377Z,26.27
2023-06-02T12:33:41.556Z,26.34
2023-06-02T12:36:11.309Z,26.34
2023-06-02T12:38:39.573Z,26.22
2023-06-02T12:41:12.162Z,26.45
2023-06-02T12:43:40.997Z,26.35
2023-06-02T12:46:09.530Z,26.51
2023-06-02T12:48:39.816Z,26.58
2023-06-02T12:51:09.200Z,26.42
2023-06-02T12:53:37.810Z,26.52
2023-06-02T12:56:06.163Z,26.61
2023-06-02T12:58:34.829Z,26.65
2023-06-02T13:01:03.855Z,26.66
2023-06-02T13:03:32.152Z,26.60
2023-06-02T13:06:03.904Z,26.36
2023-06-02T13:08:32.490Z,26.23
2023-06-02T13:11:00.729Z,26.34
2023-06-02T13:13:29.137Z,26.15
2023-06-02T13:15:57.278Z,26.19
2023-06-02T13:18:25.699Z,26.29
2023-06-02T13:20:53.850Z,26.31
2023-06-02T13:23:23.892Z,26.38
2023-06-02T13:25:52.031Z,26.05
2023-06-02T13:28:20.665Z,26.12
2023-06-02T13:30:48.634Z,26.23
2023-06-02T13:33:16.649Z,26.06
2023-06-02T13:35:44.914Z,26.18
2023-06-02T13:38:12.922Z,26.37
2023-06-02T13:40:42.487Z,26.41
2023-06-02T13:43:11.059Z,26.10
2023-06-02T13:45:39.241Z,26.24
2023-06-02T13:48:08.146Z,25.94
2023-06-02T13:50:36.378Z,26.26
2023-06-02T13:53:04.674Z,26.36
2023-06-02T13:55:33.419Z,26.31
2023-06-02T13:58:02.960Z,26.39
2023-06-02T14:00:31.027Z,26.56
2023-06-02T14:02:59.087Z,26.63
2023-06-02T14:05:27.230Z,26.49
2023-06-02T14:07:55.339Z,26.49
2023-06-02T14:10:23.631Z,26.56
2023-06-02T14:12:51.562Z,26.47
2023-06-02T14:15:20.998Z,26.20
2023-06-02T14:17:49.030Z,26.35
2023-06-02T14:20:17.060Z,26.32
2023-06-02T14:22:44.991Z,26.54
2023-06-02T14:25:13.013Z,26.69
2023-06-02T14:27:41.305Z,26.43
2023-06-02T14:30:10.260Z,26.02
2023-06-02T14:32:39.782Z,26.07
2023-06-02T14:35:08.521Z,26.04
2023-06-02T14:37:36.482Z,26.00
2023-06-02T14:40:05.163Z,25.87
2023-06-02T14:42:33.075Z,25.96
2023-06-02T14:45:01.179Z,26.02
2023-06-02T14:47:34.186Z,26.13
2023-06-02T14:50:04.457Z,25.94
2023-06-02T14:52:32.485Z,25.87
2023-06-02T14:55:00.845Z,25.94
2023-06-02T14:57:29.684Z,26.00
2023-06-02T14:59:57.703Z,26.03
2023-06-02T15:02:26.389Z,26.12
2023-06-02T15:04:54.437Z,26.10
2023-06-02T15:07:23.739Z,26.12
2023-06-02T15:09:51.776Z,25.79
2023-06-02T15:12:19.825Z,25.82
2023-06-02T15:14:47.744Z,25.84
2023-06-02T15:17:16.068Z,25.83
2023-06-02T15:19:44.256Z,25.67
2023-06-02T15:22:12.403Z,25.54
2023-06-02T15:24:41.940Z,25.63
2023-06-02T15:27:09.965Z,25.26
2023-06-02T15:29:37.860Z,25.04
2023-06-02T15:32:06.527Z,25.11
2023-06-02T15:34:34.456Z,25.22
2023-06-02T15:37:02.401Z,25.24
2023-06-02T15:39:30.434Z,25.24
2023-06-02T15:41:59.674Z,25.35
2023-06-02T15:44:27.737Z,25.28
2023-06-02T15:46:55.850Z,25.10
2023-06-02T15:49:25.748Z,25.20
2023-06-02T15:51:53.734Z,25.29
2023-06-02T15:54:21.710Z,25.18
2023-06-02T15:56:52.860Z,25.02
2023-06-02T15:59:22.212Z,24.93
2023-06-02T16:01:50.586Z,24.92
2023-06-02T16:04:18.680Z,24.92
2023-06-02T16:06:46.656Z,24.99
2023-06-02T16:09:14.609Z,24.92
2023-06-02T16:11:42.792Z,24.77
2023-06-02T16:14:10.877Z,24.57
2023-06-02T16:16:40.250Z,24.71
2023-06-02T16:19:08.823Z,24.57
2023-06-02T16:21:36.908Z,24.49
2023-06-02T16:24:05.036Z,24.56
2023-06-02T16:26:33.214Z,24.51
2023-06-02T16:29:01.297Z,24.54
2023-06-02T16:31:29.258Z,24.30
2023-06-02T16:33:58.602Z,24.33
2023-06-02T16:36:26.556Z,24.42
2023-06-02T16:38:54.470Z,24.54
2023-06-02T16:41:22.496Z,24.48
2023-06-02T16:43:50.445Z,24.37
2023-06-02T16:46:19.200Z,24.34
2023-06-02T16:48:47.200Z,24.42
2023-06-02T16:51:16.471Z,24.27
2023-06-02T16:53:44.398Z,24.33
2023-06-02T16:56:12.394Z,24.38
2023-06-02T16:58:40.312Z,24.22
2023-06-02T17:01:08.993Z,24.28
2023-06-02T17:03:37.284Z,24.20
2023-06-02T17:06:05.286Z,24.05
2023-06-02T17:08:34.621Z,24.07
2023-06-02T17:11:02.935Z,24.13
2023-06-02T17:13:34.003Z,24.12
2023-06-02T17:16:02.272Z,24.03
2023-06-02T17:18:30.482Z,23.96
2023-06-02T17:20:58.533Z,23.93
2023-06-02T17:23:26.509Z,23.90
2023-06-02T17:25:55.804Z,23.87
2023-06-02T17:28:23.719Z,23.87
2023-06-02T17:30:52.571Z,23.67
2023-06-02T17:33:20.676Z,23.59
2023-06-02T17:35:48.911Z,23.61
2023-06-02T17:38:16.948Z,23.50
2023-06-02T17:40:45.535Z,23.56
2023-06-02T17:43:14.900Z,23.44
2023-06-02T17:45:42.795Z,23.34
2023-06-02T17:48:10.845Z,23.35
2023-06-02T17:50:39.073Z,23.24
2023-06-02T17:53:06.949Z,23.30
2023-06-02T17:55:35.215Z,23.30
2023-06-02T17:58:04.210Z,23.22
2023-06-02T18:00:33.541Z,23.18
2023-06-02T18:03:01.579Z,23.18
2023-06-02T18:05:29.981Z,23.04
2023-06-02T18:07:58.223Z,23.01
2023-06-02T18:10:28.125Z,22.97
2023-06-02T18:12:59.787Z,22.92
2023-06-02T18:15:28.009Z,22.86
2023-06-02T18:17:57.412Z,22.80
2023-06-02T18:20:25.472Z,22.78
2023-06-02T18:22:53.504Z,22.79
2023-06-02T18:25:21.995Z,22.74
2023-06-02T18:27:49.888Z,22.77
2023-06-02T18:30:18.086Z,22.79
2023-06-02T18:32:46.092Z,22.74
2023-06-02T18:35:15.999Z,22.76
2023-06-02T18:37:43.991Z,22.78
2023-06-02T18:40:13.407Z,22.75
2023-06-02T18:42:41.318Z,22.78
2023-06-02T18:45:10.155Z,22.81
2023-06-02T18:47:38.280Z,22.79
2023-06-02T18:50:07.656Z,22.79
2023-06-02T18:52:36.943Z,22.73
2023-06-02T18:55:05.224Z,22.69
2023-06-02T18:57:33.917Z,22.62
2023-06-02T19:00:01.971Z,22.60
2023-06-02T19:02:30.004Z,22.54
2023-06-02T19:04:57.988Z,22.50
2023-06-02T19:07:29.557Z,22.46
2023-06-02T19:09:58.960Z,22.43
2023-06-02T19:12:26.892Z,22.41
2023-06-02T19:14:54.918Z,22.39
2023-06-02T19:17:22.927Z,22.23
2023-06-02T19:19:51.668Z,22.32
2023-06-02T19:22:19.707Z,22.28
2023-06-02T19:24:47.706Z,22.24
2023-06-02T19:27:17.024Z,22.21
2023-06-02T19:29:44.989Z,22.18
2023-06-02T19:32:12.952Z,22.13
2023-06-02T19:34:41.400Z,22.09
2023-06-02T19:37:10.127Z,22.01
2023-06-02T19:39:38.045Z,22.07
2023-06-02T19:42:06.939Z,22.07
2023-06-02T19:44:36.316Z,22.05
2023-06-02T19:47:04.419Z,21.64
2023-06-02T19:49:32.357Z,21.97
2023-06-02T19:52:00.286Z,21.97
2023-06-02T19:54:28.439Z,21.30
2023-06-02T19:56:56.499Z,21.83
2023-06-02T19:59:24.509Z,21.72
2023-06-02T20:01:53.778Z,21.65
2023-06-02T20:04:21.859Z,21.53
2023-06-02T20:06:49.773Z,21.27
2023-06-02T20:09:17.689Z,20.57
2023-06-02T20:11:45.779Z,20.00
2023-06-02T20:14:13.937Z,20.14
2023-06-02T20:16:42.262Z,20.04
2023-06-02T20:19:11.720Z,20.37
2023-06-02T20:21:39.750Z,20.28
2023-06-02T20:24:08.110Z,20.14
2023-06-02T20:26:36.515Z,20.32
2023-06-02T20:29:04.464Z,20.35
2023-06-02T20:31:32.377Z,20.45
2023-06-02T20:34:00.358Z,20.37
2023-06-02T20:36:29.720Z,20.26
2023-06-02T20:38:57.775Z,20.33
2023-06-02T20:41:26.043Z,20.40
2023-06-02T20:43:54.073Z,20.38
2023-06-02T20:46:22.014Z,20.42
2023-06-02T20:48:50.006Z,20.37
2023-06-02T20:51:18.280Z,20.39
2023-06-02T20:53:47.676Z,20.33
2023-06-02T20:56:15.620Z,20.24
2023-06-02T20:58:43.554Z,20.30
2023-06-02T21:01:11.423Z,20.30
2023-06-02T21:03:39.476Z,20.26
2023-06-02T21:06:07.528Z,20.20
2023-06-02T21:08:35.453Z,20.19
2023-06-02T21:11:07.572Z,20.12
2023-06-02T21:13:35.929Z,20.00
2023-06-02T21:16:04.384Z,19.94
2023-06-02T21:18:32.499Z,19.77
2023-06-02T21:21:00.883Z,19.81
2023-06-02T21:23:28.825Z,19.70
2023-06-02T21:25:56.749Z,19.84
2023-06-02T21:28:26.050Z,19.91
2023-06-02T21:30:53.979Z,19.91
2023-06-02T21:33:22.020Z,19.72
2023-06-02T21:35:49.940Z,19.83
2023-06-02T21:38:17.968Z,19.82
2023-06-02T21:40:45.984Z,19.75
2023-06-02T21:43:13.917Z,19.76
2023-06-02T21:45:43.250Z,19.74
2023-06-02T21:48:11.206Z,19.51
2023-06-02T21:50:39.163Z,19.50
2023-06-02T21:53:07.081Z,19.43
2023-06-02T21:55:35.087Z,19.36
2023-06-02T21:58:02.980Z,19.34
2023-06-02T22:00:30.897Z,19.16
2023-06-02T22:03:00.290Z,19.00
2023-06-02T22:05:28.286Z,19.10
2023-06-02T22:07:56.298Z,19.21
2023-06-02T22:10:24.259Z,19.34
2023-06-02T22:12:53.162Z,19.45
2023-06-02T22:15:21.394Z,19.48
2023-06-02T22:17:49.411Z,19.43
2023-06-02T22:20:18.845Z,19.49
2023-06-02T22:22:46.812Z,19.47
2023-06-02T22:25:14.815Z,19.47
2023-06-02T22:27:42.740Z,19.20
2023-06-02T22:30:11.805Z,19.21
2023-06-02T22:32:39.837Z,19.04
2023-06-02T22:35:08.348Z,19.23
2023-06-02T22:37:37.670Z,19.34
2023-06-02T22:40:06.358Z,19.30
2023-06-02T22:42:34.339Z,19.42
2023-06-02T22:45:02.431Z,19.36
2023-06-02T22:47:30.679Z,19.37
2023-06-02T22:49:58.656Z,19.32
2023-06-02T22:52:26.568Z,19.30
2023-06-02T22:54:56.224Z,19.21
2023-06-02T22:57:26.107Z,19.16
2023-06-02T22:59:54.327Z,19.17
2023-06-02T23:02:22.352Z,19.19
2023-06-02T23:04:50.441Z,19.13
2023-06-02T23:07:18.382Z,19.25
2023-06-02T23:09:46.264Z,19.24
2023-06-02T23:12:16.067Z,19.18
2023-06-02T23:14:44.001Z,19.15
2023-06-02T23:17:11.924Z,19.10
2023-06-02T23:19:39.865Z,18.98
2023-06-02T23:22:08.051Z,18.97
2023-06-02T23:24:35.978Z,18.88
2023-06-02T23:27:04.051Z,18.89
2023-06-02T23:29:33.334Z,18.85
2023-06-02T23:32:01.415Z,18.78
2023-06-02T23:34:29.350Z,18.89
2023-06-02T23:36:57.246Z,18.87
2023-06-02T23:39:25.221Z,18.84
2023-06-02T23:41:53.180Z,18.76
2023-06-02T23:44:21.114Z,18.76
2023-06-02T23:46:50.473Z,18.78
2023-06-02T23:49:18.506Z,18.77
2023-06-02T23:51:46.457Z,18.68
2023-06-02T23:54:14.443Z,18.69
2023-06-02T23:56:42.520Z,18.66
2023-06-02T23:59:10.482Z,18.55
